createdAt,value
2018-10-11T00:00:50.040Z,33.50
2018-10-11T00:03:18.060Z,34.80
2018-10-11T00:05:46.109Z,34.43
2018-10-11T00:08:14.141Z,35.30
2018-10-11T00:10:42.181Z,34.10
2018-10-11T00:13:10.225Z,33.60
2018-10-11T00:15:38.257Z,34.08
2018-10-11T00:18:06.320Z,34.40
2018-10-11T00:20:34.346Z,34.45
2018-10-11T00:23:02.394Z,33.90
2018-10-11T00:25:30.419Z,34.67
2018-10-11T00:27:58.465Z,35.60
2018-10-11T00:30:26.505Z,34.88
2018-10-11T00:32:54.531Z,36.10
2018-10-11T00:35:22.583Z,36.88
2018-10-11T00:37:50.612Z,34.33
2018-10-11T00:40:18.667Z,34.58
2018-10-11T00:42:46.705Z,34.08
2018-10-11T00:45:14.741Z,35.57
2018-10-11T00:47:42.777Z,35.98
2018-10-11T00:50:10.837Z,34.55
2018-10-11T00:52:38.924Z,35.30
2018-10-11T00:55:07.073Z,35.00
2018-10-11T00:57:35.139Z,34.55
2018-10-11T01:00:03.200Z,33.35
2018-10-11T01:02:31.217Z,35.05
2018-10-11T01:04:59.248Z,34.23
2018-10-11T01:07:27.288Z,33.83
2018-10-11T01:09:55.381Z,34.70
2018-10-11T01:12:23.390Z,35.48
2018-10-11T01:14:51.426Z,34.77
2018-10-11T01:17:19.449Z,36.00
2018-10-11T01:19:47.512Z,35.75
2018-10-11T01:22:15.546Z,35.00
2018-10-11T01:24:43.596Z,36.68
2018-10-11T01:27:11.621Z,36.70
2018-10-11T01:29:39.749Z,37.48
2018-10-11T01:32:07.833Z,35.20
2018-10-11T01:34:35.884Z,35.93
2018-10-11T01:37:03.905Z,36.60
2018-10-11T01:39:32.366Z,35.58
2018-10-11T01:42:00.396Z,36.58
2018-10-11T01:44:28.464Z,36.20
2018-10-11T01:46:56.514Z,37.15
2018-10-11T01:49:24.564Z,36.28
2018-10-11T01:51:52.597Z,35.88
2018-10-11T01:54:20.642Z,36.70
2018-10-11T01:56:48.754Z,36.17
2018-10-11T01:59:16.728Z,38.73
2018-10-11T02:01:44.764Z,37.87
2018-10-11T02:04:12.797Z,37.40
2018-10-11T02:06:40.846Z,37.67
2018-10-11T02:09:08.932Z,38.15
2018-10-11T02:11:36.967Z,38.00
2018-10-11T02:14:05.001Z,38.20
2018-10-11T02:16:33.016Z,37.30
2018-10-11T02:19:01.113Z,38.88
2018-10-11T02:21:29.141Z,38.90
2018-10-11T02:23:57.188Z,39.00
2018-10-11T02:26:25.216Z,38.85
2018-10-11T02:28:53.280Z,40.70
2018-10-11T02:31:21.346Z,38.45
2018-10-11T02:33:49.389Z,38.10
2018-10-11T02:36:17.429Z,39.33
2018-10-11T02:38:45.485Z,39.23
2018-10-11T02:41:13.569Z,39.67
2018-10-11T02:43:41.613Z,40.50
2018-10-11T02:46:09.639Z,39.73
2018-10-11T02:48:37.692Z,38.90
2018-10-11T02:51:06.008Z,39.50
2018-10-11T02:53:34.040Z,39.80
2018-10-11T02:56:02.096Z,38.65
2018-10-11T02:58:41.609Z,40.00
2018-10-11T03:01:09.688Z,41.13
2018-10-11T03:03:37.729Z,40.25
2018-10-11T03:06:05.781Z,41.97
2018-10-11T03:08:33.829Z,42.93
2018-10-11T03:11:01.884Z,39.98
2018-10-11T03:13:29.937Z,41.50
2018-10-11T03:15:57.993Z,42.17
2018-10-11T03:18:26.023Z,42.15
2018-10-11T03:20:54.087Z,41.70
2018-10-11T03:23:22.126Z,42.95
2018-10-11T03:25:50.181Z,42.17
2018-10-11T03:28:18.286Z,41.95
2018-10-11T03:30:46.300Z,41.48
2018-10-11T03:33:14.965Z,42.08
2018-10-11T03:35:43.956Z,41.20
2018-10-11T03:38:12.224Z,40.53
2018-10-11T03:40:40.268Z,41.45
2018-10-11T03:43:08.312Z,40.35
2018-10-11T03:45:36.353Z,41.70
2018-10-11T03:48:04.396Z,41.75
2018-10-11T03:50:32.458Z,40.67
2018-10-11T03:53:00.499Z,39.83
2018-10-11T03:55:28.714Z,40.53
2018-10-11T03:57:56.756Z,40.20
2018-10-11T04:00:25.220Z,41.53
2018-10-11T04:02:53.264Z,41.65
2018-10-11T04:05:21.300Z,42.10
2018-10-11T04:07:49.353Z,42.20
2018-10-11T04:10:17.384Z,42.27
2018-10-11T04:12:45.438Z,42.30
2018-10-11T04:15:13.481Z,42.23
2018-10-11T04:17:41.556Z,40.43
2018-10-11T04:20:09.617Z,41.30
2018-10-11T04:22:37.668Z,41.37
2018-10-11T04:25:05.704Z,41.25
2018-10-11T04:27:33.740Z,42.13
2018-10-11T04:30:01.784Z,42.33
2018-10-11T04:32:29.822Z,42.10
2018-10-11T04:34:57.857Z,41.77
2018-10-11T04:37:25.904Z,43.02
2018-10-11T04:39:53.953Z,41.88
2018-10-11T04:42:22.017Z,44.13
2018-10-11T04:44:50.037Z,43.35
2018-10-11T04:47:18.078Z,43.87
2018-10-11T04:49:46.125Z,44.83
2018-10-11T04:52:14.185Z,43.98
2018-10-11T04:54:42.226Z,42.70
2018-10-11T04:57:10.248Z,44.00
2018-10-11T04:59:38.345Z,43.73
2018-10-11T05:02:06.353Z,43.95
2018-10-11T05:04:34.393Z,46.00
2018-10-11T05:07:02.429Z,46.00
2018-10-11T05:09:30.497Z,47.75
2018-10-11T05:11:58.580Z,46.55
2018-10-11T05:14:26.779Z,48.87
2018-10-11T05:16:54.857Z,46.35
2018-10-11T05:19:22.899Z,45.20
2018-10-11T05:21:50.966Z,43.38
2018-10-11T05:24:19.010Z,45.60
2018-10-11T05:26:47.078Z,43.98
2018-10-11T05:29:15.120Z,45.60
2018-10-11T05:31:43.156Z,45.63
2018-10-11T05:34:11.209Z,46.48
2018-10-11T05:36:39.268Z,45.00
2018-10-11T05:39:07.754Z,45.38
2018-10-11T05:41:36.211Z,47.03
2018-10-11T05:44:04.268Z,45.35
2018-10-11T05:46:33.221Z,47.10
2018-10-11T05:49:02.609Z,46.07
2018-10-11T05:51:31.236Z,46.30
2018-10-11T05:54:01.325Z,46.55
2018-10-11T05:56:31.812Z,46.05
2018-10-11T05:59:00.150Z,45.90
2018-10-11T06:01:28.279Z,46.65
2018-10-11T06:03:57.213Z,46.75
2018-10-11T06:06:25.297Z,46.15
2018-10-11T06:08:53.341Z,43.90
2018-10-11T06:11:21.373Z,44.27
2018-10-11T06:13:50.126Z,45.35
2018-10-11T06:16:18.193Z,45.60
2018-10-11T06:18:46.276Z,43.48
2018-10-11T06:21:14.747Z,43.70
2018-10-11T06:23:42.823Z,43.92
2018-10-11T06:26:10.987Z,45.10
2018-10-11T06:28:39.048Z,45.30
2018-10-11T06:31:07.090Z,44.80
2018-10-11T06:33:35.240Z,44.08
2018-10-11T06:36:03.380Z,46.33
2018-10-11T06:38:31.383Z,43.93
2018-10-11T06:40:59.423Z,44.27
2018-10-11T06:43:28.364Z,43.78
2018-10-11T06:45:56.441Z,43.63
2018-10-11T06:48:24.497Z,45.33
2018-10-11T06:50:52.557Z,43.90
2018-10-11T06:53:20.624Z,44.05
2018-10-11T06:55:48.745Z,43.23
2018-10-11T06:58:16.757Z,43.00
2018-10-11T07:00:44.799Z,43.58
2018-10-11T07:03:12.872Z,42.53
2018-10-11T07:05:40.918Z,43.85
2018-10-11T07:08:09.412Z,43.00
2018-10-11T07:10:37.476Z,42.73
2018-10-11T07:13:05.694Z,41.93
2018-10-11T07:15:33.757Z,41.50
2018-10-11T07:18:01.821Z,39.92
2018-10-11T07:20:29.892Z,41.57
2018-10-11T07:22:57.936Z,40.48
2018-10-11T07:25:26.010Z,41.70
2018-10-11T07:27:54.054Z,41.88
2018-10-11T07:30:22.112Z,40.48
2018-10-11T07:32:50.173Z,40.28
2018-10-11T07:35:18.378Z,41.05
2018-10-11T07:37:46.337Z,41.07
2018-10-11T07:40:14.449Z,39.13
2018-10-11T07:42:42.605Z,38.42
2018-10-11T07:45:11.470Z,38.80
2018-10-11T07:47:39.531Z,37.58
2018-10-11T07:50:07.854Z,37.30
2018-10-11T07:52:35.927Z,37.70
2018-10-11T07:55:04.273Z,38.10
2018-10-11T07:57:32.375Z,39.50
2018-10-11T08:00:00.454Z,38.42
2018-10-11T08:02:28.605Z,38.87
2018-10-11T08:04:56.741Z,37.65
2018-10-11T08:07:24.939Z,36.73
2018-10-11T08:09:53.442Z,37.50
2018-10-11T08:12:21.497Z,37.98
2018-10-11T08:14:49.852Z,36.65
2018-10-11T08:17:19.072Z,37.40
2018-10-11T08:19:47.595Z,36.98
2018-10-11T08:22:16.481Z,37.17
2018-10-11T08:24:48.319Z,37.70
2018-10-11T08:27:17.441Z,35.70
2018-10-11T08:29:46.325Z,36.15
2018-10-11T08:32:15.146Z,34.53
2018-10-11T08:34:44.066Z,36.38
2018-10-11T08:37:13.107Z,37.05
2018-10-11T08:39:41.192Z,36.00
2018-10-11T08:42:09.247Z,35.30
2018-10-11T08:44:37.302Z,36.38
2018-10-11T08:47:05.352Z,36.58
2018-10-11T08:49:33.425Z,35.23
2018-10-11T08:52:01.472Z,35.80
2018-10-11T08:54:34.957Z,34.60
2018-10-11T08:57:03.000Z,34.85
2018-10-11T08:59:31.096Z,35.03
2018-10-11T09:01:59.093Z,34.75
2018-10-11T09:04:27.144Z,35.10
2018-10-11T09:06:55.196Z,36.17
2018-10-11T09:09:23.312Z,35.20
2018-10-11T09:11:51.337Z,34.93
2018-10-11T09:14:19.387Z,35.88
2018-10-11T09:16:47.439Z,34.50
2018-10-11T09:19:15.502Z,34.30
2018-10-11T09:21:43.554Z,34.98
2018-10-11T09:24:11.605Z,34.10
2018-10-11T09:26:39.655Z,33.30
2018-10-11T09:29:08.577Z,33.78
2018-10-11T09:31:36.645Z,33.38
2018-10-11T09:34:04.697Z,34.67
2018-10-11T09:36:32.793Z,35.08
2018-10-11T09:39:00.800Z,34.35
2018-10-11T09:41:28.839Z,34.23
2018-10-11T09:43:56.889Z,34.08
2018-10-11T09:46:24.961Z,34.60
2018-10-11T09:48:53.095Z,33.53
2018-10-11T09:51:21.091Z,34.10
2018-10-11T09:53:49.124Z,31.57
2018-10-11T09:56:17.166Z,36.00
2018-10-11T09:58:45.209Z,34.15
2018-10-11T10:01:18.818Z,33.50
2018-10-11T10:03:47.033Z,33.10
2018-10-11T10:06:15.105Z,32.03
2018-10-11T10:08:43.140Z,31.77
2018-10-11T10:11:11.209Z,32.53
2018-10-11T10:13:39.254Z,32.83
2018-10-11T10:16:07.296Z,33.25
2018-10-11T10:18:35.382Z,30.60
2018-10-11T10:21:03.487Z,31.82
2018-10-11T10:23:31.521Z,30.60
2018-10-11T10:25:59.570Z,30.70
2018-10-11T10:28:27.635Z,29.80
2018-10-11T10:30:55.991Z,30.80
2018-10-11T10:33:54.988Z,29.50
2018-10-11T10:36:23.008Z,30.32
2018-10-11T10:38:51.046Z,29.60
2018-10-11T10:41:19.080Z,29.10
2018-10-11T10:43:47.121Z,28.45
2018-10-11T10:46:15.153Z,27.70
2018-10-11T10:48:43.203Z,27.60
2018-10-11T10:51:11.252Z,27.67
2018-10-11T10:53:39.311Z,27.73
2018-10-11T10:56:07.355Z,29.63
2018-10-11T10:58:35.597Z,27.52
2018-10-11T11:01:03.620Z,26.55
2018-10-11T11:03:31.660Z,27.67
2018-10-11T11:05:59.746Z,27.27
2018-10-11T11:08:27.795Z,27.65
2018-10-11T11:10:55.833Z,26.93
2018-10-11T11:13:23.872Z,27.50
2018-10-11T11:15:51.977Z,27.35
2018-10-11T11:18:20.018Z,28.32
2018-10-11T11:20:48.077Z,27.93
2018-10-11T11:23:16.133Z,25.27
2018-10-11T11:25:44.181Z,28.02
2018-10-11T11:28:12.237Z,24.50
2018-10-11T11:30:40.290Z,26.82
2018-10-11T11:33:08.417Z,25.82
2018-10-11T11:35:36.456Z,24.67
2018-10-11T11:38:04.513Z,27.20
2018-10-11T11:40:32.545Z,26.00
2018-10-11T11:43:00.637Z,25.08
2018-10-11T11:45:28.650Z,26.90
2018-10-11T11:47:56.684Z,24.92
2018-10-11T11:50:24.794Z,25.12
2018-10-11T11:52:52.800Z,25.40
2018-10-11T11:55:20.845Z,24.77
2018-10-11T11:57:48.913Z,25.62
2018-10-11T12:00:16.936Z,23.95
2018-10-11T12:02:45.028Z,24.30
2018-10-11T12:05:13.098Z,23.10
2018-10-11T12:07:41.089Z,23.00
2018-10-11T12:10:09.128Z,23.05
2018-10-11T12:13:09.146Z,23.20
2018-10-11T12:15:38.140Z,23.18
2018-10-11T12:18:06.804Z,23.60
2018-10-11T12:20:37.052Z,23.57
2018-10-11T12:23:06.244Z,24.55
2018-10-11T12:25:34.615Z,22.80
2018-10-11T12:28:02.666Z,25.05
2018-10-11T12:30:30.721Z,24.27
2018-10-11T12:32:58.784Z,23.95
2018-10-11T12:35:27.304Z,22.50
2018-10-11T12:37:55.350Z,22.03
2018-10-11T12:40:24.226Z,23.17
2018-10-11T12:42:51.484Z,22.22
2018-10-11T12:45:19.718Z,22.52
2018-10-11T12:47:47.781Z,20.17
2018-10-11T12:50:15.849Z,21.30
2018-10-11T12:52:43.923Z,20.72
2018-10-11T12:55:12.274Z,22.42
2018-10-11T12:57:40.658Z,21.15
2018-10-11T13:00:11.052Z,21.70
2018-10-11T13:02:39.169Z,20.52
2018-10-11T13:05:08.411Z,20.82
2018-10-11T13:07:36.475Z,21.60
2018-10-11T13:10:08.477Z,19.82
2018-10-11T13:12:36.563Z,19.98
2018-10-11T13:15:04.709Z,20.57
2018-10-11T13:17:38.428Z,21.02
2018-10-11T13:20:00.828Z,20.55
2018-10-11T13:22:28.915Z,20.77
2018-10-11T13:24:56.965Z,19.37
2018-10-11T13:27:25.449Z,19.82
2018-10-11T13:29:53.526Z,20.37
2018-10-11T13:32:21.656Z,21.48
2018-10-11T13:34:49.845Z,21.35
2018-10-11T13:37:17.883Z,20.40
2018-10-11T13:39:52.025Z,20.65
2018-10-11T13:42:13.986Z,20.95
2018-10-11T13:44:42.013Z,20.88
2018-10-11T13:47:10.108Z,21.70
2018-10-11T13:49:38.093Z,20.68
2018-10-11T13:52:06.550Z,20.82
2018-10-11T13:54:34.592Z,20.23
2018-10-11T13:57:03.348Z,19.98
2018-10-11T13:59:30.678Z,21.00
2018-10-11T14:01:58.740Z,21.10
2018-10-11T14:04:26.836Z,20.97
2018-10-11T14:06:54.845Z,21.05
2018-10-11T14:09:22.873Z,20.25
2018-10-11T14:11:50.931Z,21.85
2018-10-11T14:14:19.001Z,21.27
2018-10-11T14:16:47.073Z,21.33
2018-10-11T14:19:15.139Z,21.27
2018-10-11T14:21:43.185Z,21.48
2018-10-11T14:24:11.330Z,21.40
2018-10-11T14:26:39.320Z,20.55
2018-10-11T14:29:07.385Z,20.55
2018-10-11T14:31:35.437Z,21.23
2018-10-11T14:34:03.484Z,21.00
2018-10-11T14:36:31.577Z,21.20
2018-10-11T14:38:59.605Z,20.70
2018-10-11T14:41:27.661Z,20.95
2018-10-11T14:43:55.712Z,21.27
2018-10-11T14:46:23.744Z,21.93
2018-10-11T14:48:51.833Z,19.50
2018-10-11T14:51:19.966Z,19.70
2018-10-11T14:53:52.781Z,19.50
2018-10-11T14:56:16.311Z,20.15
2018-10-11T14:58:44.382Z,19.20
2018-10-11T15:01:12.551Z,20.95
2018-10-11T15:03:40.584Z,20.30
2018-10-11T15:06:08.629Z,19.62
2018-10-11T15:08:36.668Z,20.00
2018-10-11T15:11:04.874Z,20.17
2018-10-11T15:13:32.788Z,20.30
2018-10-11T15:16:00.836Z,20.70
2018-10-11T15:18:28.885Z,20.12
2018-10-11T15:20:57.893Z,19.30
2018-10-11T15:23:26.333Z,23.22
2018-10-11T15:25:54.453Z,20.70
2018-10-11T15:28:22.514Z,20.88
2018-10-11T15:30:50.572Z,21.80
2018-10-11T15:33:18.708Z,20.80
2018-10-11T15:35:46.784Z,21.33
2018-10-11T15:38:14.845Z,21.20
2018-10-11T15:40:42.889Z,20.03
2018-10-11T15:43:10.924Z,19.50
2018-10-11T15:45:39.053Z,21.70
2018-10-11T15:48:07.105Z,21.00
2018-10-11T15:50:35.148Z,20.90
2018-10-11T15:53:03.249Z,23.50
2018-10-11T15:55:31.309Z,21.48
2018-10-11T15:58:02.961Z,21.10
2018-10-11T16:00:31.005Z,22.97
2018-10-11T16:02:59.150Z,23.60
2018-10-11T16:05:27.251Z,21.65
2018-10-11T16:07:55.257Z,21.68
2018-10-11T16:10:23.310Z,22.62
2018-10-11T16:12:51.361Z,21.77
2018-10-11T16:15:19.399Z,21.97
2018-10-11T16:17:47.476Z,23.40
2018-10-11T16:20:15.487Z,23.90
2018-10-11T16:22:43.539Z,21.75
2018-10-11T16:25:11.602Z,22.90
2018-10-11T16:27:39.681Z,23.55
2018-10-11T16:30:07.764Z,23.70
2018-10-11T16:32:35.828Z,23.00
2018-10-11T16:35:03.944Z,24.20
2018-10-11T16:37:31.985Z,25.57
2018-10-11T16:40:00.024Z,22.43
2018-10-11T16:42:28.111Z,23.47
2018-10-11T16:44:56.157Z,24.43
2018-10-11T16:47:24.238Z,23.42
2018-10-11T16:49:52.303Z,24.30
2018-10-11T16:52:20.356Z,25.23
2018-10-11T16:54:48.452Z,22.82
2018-10-11T16:57:16.854Z,23.45
2018-10-11T16:59:45.245Z,23.30
2018-10-11T17:02:13.512Z,22.87
2018-10-11T17:04:41.568Z,21.17
2018-10-11T17:07:09.612Z,22.50
2018-10-11T17:09:37.719Z,23.87
2018-10-11T17:12:05.854Z,23.75
2018-10-11T17:14:33.892Z,22.82
2018-10-11T17:17:01.962Z,22.37
2018-10-11T17:19:30.054Z,21.95
2018-10-11T17:21:58.112Z,23.38
2018-10-11T17:24:26.165Z,23.27
2018-10-11T17:26:54.209Z,24.87
2018-10-11T17:29:22.236Z,23.62
2018-10-11T17:31:50.298Z,25.10
2018-10-11T17:34:18.365Z,25.05
2018-10-11T17:36:46.441Z,23.70
2018-10-11T17:39:14.477Z,26.48
2018-10-11T17:41:42.540Z,25.20
2018-10-11T17:44:11.424Z,27.40
2018-10-11T17:46:39.545Z,23.97
2018-10-11T17:49:07.578Z,23.40
2018-10-11T17:51:35.593Z,24.35
2018-10-11T17:54:03.648Z,24.30
2018-10-11T17:56:31.907Z,25.25
2018-10-11T17:58:59.938Z,23.22
2018-10-11T18:01:27.960Z,22.95
2018-10-11T18:03:56.008Z,23.03
2018-10-11T18:06:24.060Z,22.20
2018-10-11T18:08:52.080Z,22.70
2018-10-11T18:11:20.113Z,22.90
2018-10-11T18:13:48.189Z,22.15
2018-10-11T18:16:16.309Z,22.80
2018-10-11T18:18:44.308Z,24.10
2018-10-11T18:21:12.369Z,21.20
2018-10-11T18:23:41.785Z,22.70
2018-10-11T18:26:09.861Z,22.25
2018-10-11T18:28:37.921Z,21.75
2018-10-11T18:31:06.353Z,21.17
2018-10-11T18:33:34.385Z,21.48
2018-10-11T18:36:02.488Z,20.90
2018-10-11T18:38:30.568Z,19.60
2018-10-11T18:40:58.789Z,22.25
2018-10-11T18:43:26.917Z,23.98
2018-10-11T18:45:54.973Z,24.37
2018-10-11T18:48:23.030Z,22.30
2018-10-11T18:50:51.121Z,22.45
2018-10-11T18:53:19.128Z,21.60
2018-10-11T18:55:47.170Z,21.13
2018-10-11T18:58:15.217Z,21.67
2018-10-11T19:00:43.248Z,21.80
2018-10-11T19:03:11.281Z,22.10
2018-10-11T19:05:39.356Z,21.35
2018-10-11T19:08:07.417Z,20.55
2018-10-11T19:10:35.468Z,21.48
2018-10-11T19:13:03.696Z,21.40
2018-10-11T19:15:31.894Z,22.70
2018-10-11T19:18:00.029Z,22.25
2018-10-11T19:20:28.098Z,21.65
2018-10-11T19:22:56.141Z,21.57
2018-10-11T19:25:24.201Z,20.80
2018-10-11T19:27:52.564Z,21.80
2018-10-11T19:30:20.621Z,22.45
2018-10-11T19:32:48.773Z,22.10
2018-10-11T19:35:17.065Z,22.27
2018-10-11T19:37:45.268Z,22.95
2018-10-11T19:40:13.359Z,23.60
2018-10-11T19:42:41.381Z,21.37
2018-10-11T19:45:09.429Z,23.20
2018-10-11T19:47:37.474Z,23.35
2018-10-11T19:50:05.837Z,23.40
2018-10-11T19:52:34.175Z,23.05
2018-10-11T19:55:02.249Z,22.15
2018-10-11T19:57:30.301Z,21.90
2018-10-11T19:59:58.344Z,22.35
2018-10-11T20:02:26.404Z,20.95
2018-10-11T20:04:54.445Z,21.70
2018-10-11T20:07:22.465Z,20.90
2018-10-11T20:09:50.517Z,22.17
2018-10-11T20:12:18.592Z,22.07
2018-10-11T20:14:46.758Z,23.35
2018-10-11T20:17:14.795Z,23.97
2018-10-11T20:19:42.828Z,24.02
2018-10-11T20:22:11.734Z,23.15
2018-10-11T20:24:39.775Z,22.90
2018-10-11T20:27:07.845Z,24.37
2018-10-11T20:29:36.367Z,24.30
2018-10-11T20:32:04.438Z,26.12
2018-10-11T20:34:32.614Z,23.83
2018-10-11T20:37:00.640Z,23.75
2018-10-11T20:39:28.696Z,25.60
2018-10-11T20:41:56.726Z,23.55
2018-10-11T20:44:24.776Z,24.67
2018-10-11T20:46:52.828Z,23.22
2018-10-11T20:49:20.862Z,25.52
2018-10-11T20:51:48.900Z,23.93
2018-10-11T20:54:16.939Z,25.32
2018-10-11T20:56:44.977Z,24.57
2018-10-11T20:59:13.029Z,24.02
2018-10-11T21:01:41.081Z,24.63
2018-10-11T21:04:09.128Z,22.93
2018-10-11T21:06:37.177Z,22.80
2018-10-11T21:09:07.563Z,23.50
2018-10-11T21:11:35.631Z,22.77
2018-10-11T21:14:03.677Z,22.40
2018-10-11T21:16:31.966Z,22.82
2018-10-11T21:19:00.009Z,22.58
2018-10-11T21:21:28.054Z,24.40
2018-10-11T21:23:56.093Z,23.47
2018-10-11T21:26:24.147Z,24.80
2018-10-11T21:28:52.263Z,24.90
2018-10-11T21:31:20.314Z,24.18
2018-10-11T21:33:48.400Z,24.53
2018-10-11T21:36:16.441Z,23.30
2018-10-11T21:38:44.480Z,22.20
2018-10-11T21:41:12.561Z,23.15
2018-10-11T21:43:40.608Z,23.75
2018-10-11T21:46:08.738Z,23.40
2018-10-11T21:48:36.713Z,24.40
2018-10-11T21:51:04.772Z,25.32
2018-10-11T21:53:32.825Z,25.85
2018-10-11T21:56:00.847Z,24.00
2018-10-11T21:58:28.880Z,23.70
2018-10-11T22:01:02.424Z,23.73
2018-10-11T22:03:30.458Z,24.60
2018-10-11T22:05:58.490Z,24.57
2018-10-11T22:08:26.569Z,23.50
2018-10-11T22:10:54.568Z,24.67
2018-10-11T22:13:22.610Z,24.20
2018-10-11T22:15:50.697Z,23.67
2018-10-11T22:18:18.690Z,24.27
2018-10-11T22:20:46.777Z,24.35
2018-10-11T22:23:14.797Z,23.75
2018-10-11T22:25:42.830Z,23.62
2018-10-11T22:28:10.860Z,23.47
2018-10-11T22:30:38.892Z,24.05
2018-10-11T22:33:06.941Z,24.10
2018-10-11T22:35:35.012Z,24.50
2018-10-11T22:38:03.053Z,23.50
2018-10-11T22:40:31.299Z,23.42
2018-10-11T22:42:59.333Z,24.05
2018-10-11T22:45:27.765Z,23.90
2018-10-11T22:47:56.549Z,23.75
2018-10-11T22:50:25.912Z,24.55
2018-10-11T22:52:54.317Z,25.85
2018-10-11T22:55:22.469Z,24.50
2018-10-11T22:57:50.528Z,24.27
2018-10-11T23:00:18.556Z,24.12
2018-10-11T23:02:46.609Z,24.07
2018-10-11T23:05:14.646Z,23.62
2018-10-11T23:07:42.680Z,24.20
2018-10-11T23:10:10.705Z,25.23
2018-10-11T23:12:38.872Z,25.52
2018-10-11T23:15:06.977Z,24.55
2018-10-11T23:17:34.953Z,25.55
2018-10-11T23:20:02.982Z,24.65
2018-10-11T23:22:31.024Z,24.60
2018-10-11T23:24:59.061Z,26.07
2018-10-11T23:27:27.096Z,25.17
2018-10-11T23:29:55.120Z,23.98
2018-10-11T23:32:23.171Z,24.75
2018-10-11T23:34:51.218Z,22.75
2018-10-11T23:37:19.236Z,24.60
2018-10-11T23:39:47.273Z,24.05
2018-10-11T23:42:15.301Z,23.67
2018-10-11T23:44:43.349Z,23.67
2018-10-11T23:47:11.389Z,23.60
2018-10-11T23:49:39.424Z,24.50
2018-10-11T23:52:07.449Z,23.90
2018-10-11T23:54:35.705Z,24.60
2018-10-11T23:57:03.743Z,23.92
2018-10-11T23:59:31.784Z,24.52
